createdAt,value
2023-04-04T00:02:07.928Z,2.37
2023-04-04T00:04:34.469Z,2.27
2023-04-04T00:07:01.453Z,2.37
2023-04-04T00:09:28.941Z,2.30
2023-04-04T00:11:55.517Z,2.50
2023-04-04T00:14:21.990Z,1.90
2023-04-04T00:16:48.459Z,2.00
2023-04-04T00:19:15.305Z,2.03
2023-04-04T00:21:41.981Z,2.10
2023-04-04T00:24:08.601Z,1.93
2023-04-04T00:26:35.125Z,2.30
2023-04-04T00:29:01.614Z,2.40
2023-04-04T00:31:28.088Z,2.87
2023-04-04T00:33:54.567Z,2.20
2023-04-04T00:36:21.214Z,2.30
2023-04-04T00:38:48.535Z,2.07
2023-04-04T00:41:16.571Z,2.03
2023-04-04T00:43:43.085Z,2.80
2023-04-04T00:46:09.706Z,2.47
2023-04-04T00:48:36.238Z,1.97
2023-04-04T00:51:03.215Z,2.10
2023-04-04T00:53:29.727Z,1.80
2023-04-04T00:55:56.229Z,2.57
2023-04-04T00:58:24.737Z,2.17
2023-04-04T01:00:51.400Z,2.37
2023-04-04T01:03:18.690Z,2.10
2023-04-04T01:05:45.255Z,1.93
2023-04-04T01:08:12.002Z,2.00
2023-04-04T01:10:39.952Z,2.23
2023-04-04T01:13:06.731Z,2.33
2023-04-04T01:15:33.129Z,2.70
2023-04-04T01:18:02.254Z,2.30
2023-04-04T01:20:32.332Z,2.17
2023-04-04T01:22:59.643Z,2.50
2023-04-04T01:25:31.022Z,2.10
2023-04-04T01:27:58.972Z,2.37
2023-04-04T01:30:31.107Z,2.40
2023-04-04T01:33:28.029Z,2.00
2023-04-04T01:36:35.461Z,2.10
2023-04-04T01:39:27.472Z,2.33
2023-04-04T01:41:56.250Z,2.40
2023-04-04T01:44:24.458Z,2.30
2023-04-04T01:46:54.497Z,2.90
2023-04-04T01:49:22.135Z,2.03
2023-04-04T01:51:49.918Z,2.30
2023-04-04T01:54:16.378Z,2.37
2023-04-04T01:56:42.725Z,2.50
2023-04-04T01:59:09.238Z,2.53
2023-04-04T02:01:35.732Z,2.43
2023-04-04T02:04:02.432Z,2.30
2023-04-04T02:06:28.960Z,2.70
2023-04-04T02:08:55.375Z,2.57
2023-04-04T02:11:22.858Z,2.37
2023-04-04T02:13:50.143Z,3.37
2023-04-04T02:16:16.635Z,3.00
2023-04-04T02:18:43.475Z,2.90
2023-04-04T02:21:10.061Z,2.40
2023-04-04T02:23:37.007Z,2.40
2023-04-04T02:26:04.242Z,2.30
2023-04-04T02:28:30.818Z,2.57
2023-04-04T02:31:01.561Z,2.33
2023-04-04T02:35:58.609Z,2.57
2023-04-04T02:38:26.285Z,3.30
2023-04-04T02:40:53.080Z,3.57
2023-04-04T02:43:19.794Z,3.93
2023-04-04T02:45:48.603Z,3.90
2023-04-04T02:48:15.216Z,3.27
2023-04-04T02:50:41.982Z,3.47
2023-04-04T02:53:08.858Z,3.30
2023-04-04T02:55:35.408Z,3.57
2023-04-04T02:58:02.051Z,3.50
2023-04-04T03:00:28.887Z,3.60
2023-04-04T03:02:56.254Z,3.87
2023-04-04T03:05:27.528Z,3.83
2023-04-04T03:07:58.554Z,4.37
2023-04-04T03:10:26.620Z,4.70
2023-04-04T03:12:53.242Z,4.33
2023-04-04T03:15:19.929Z,4.17
2023-04-04T03:17:46.857Z,4.30
2023-04-04T03:20:14.823Z,3.77
2023-04-04T03:22:42.144Z,4.63
2023-04-04T03:25:09.451Z,4.20
2023-04-04T03:27:36.046Z,3.10
2023-04-04T03:30:02.668Z,3.70
2023-04-04T03:32:29.423Z,4.27
2023-04-04T03:34:55.826Z,3.70
2023-04-04T03:37:22.422Z,3.83
2023-04-04T03:39:49.165Z,4.23
2023-04-04T03:42:15.625Z,3.40
2023-04-04T03:44:42.945Z,4.10
2023-04-04T03:47:09.445Z,3.40
2023-04-04T03:49:35.948Z,3.80
2023-04-04T03:52:02.401Z,3.97
2023-04-04T03:54:29.427Z,3.50
2023-04-04T03:56:56.814Z,3.70
2023-04-04T03:59:23.733Z,3.33
2023-04-04T04:01:50.413Z,3.57
2023-04-04T04:04:16.920Z,3.30
2023-04-04T04:06:43.441Z,3.80
2023-04-04T04:09:10.158Z,3.87
2023-04-04T04:11:36.955Z,3.53
2023-04-04T04:14:03.701Z,3.97
2023-04-04T04:16:30.251Z,3.60
2023-04-04T04:18:58.068Z,3.30
2023-04-04T04:21:24.878Z,3.50
2023-04-04T04:23:51.610Z,2.90
2023-04-04T04:26:18.480Z,3.40
2023-04-04T04:28:47.036Z,4.20
2023-04-04T04:31:13.966Z,3.97
2023-04-04T04:33:40.412Z,3.63
2023-04-04T04:36:07.518Z,3.50
2023-04-04T04:38:34.112Z,3.87
2023-04-04T04:41:01.357Z,3.87
2023-04-04T04:43:27.776Z,4.23
2023-04-04T04:45:54.217Z,3.63
2023-04-04T04:48:20.743Z,5.17
2023-04-04T04:50:48.309Z,3.80
2023-04-04T04:53:15.068Z,3.93
2023-04-04T04:55:41.598Z,4.27
2023-04-04T04:58:08.370Z,4.37
2023-04-04T05:00:35.752Z,4.40
2023-04-04T05:03:02.460Z,4.33
2023-04-04T05:05:28.987Z,4.20
2023-04-04T05:07:55.551Z,4.67
2023-04-04T05:10:22.225Z,4.27
2023-04-04T05:12:48.983Z,4.30
2023-04-04T05:15:15.463Z,4.20
2023-04-04T05:17:41.980Z,4.20
2023-04-04T05:20:08.900Z,4.17
2023-04-04T05:22:35.613Z,5.40
2023-04-04T05:25:02.069Z,4.63
2023-04-04T05:27:28.895Z,4.27
2023-04-04T05:29:55.896Z,4.50
2023-04-04T05:32:22.752Z,5.23
2023-04-04T05:34:49.242Z,6.30
2023-04-04T05:37:15.687Z,5.17
2023-04-04T05:39:42.172Z,4.40
2023-04-04T05:42:08.873Z,5.87
2023-04-04T05:44:35.777Z,5.90
2023-04-04T05:47:02.189Z,5.60
2023-04-04T05:49:29.394Z,5.73
2023-04-04T05:51:55.815Z,5.67
2023-04-04T05:54:22.711Z,5.30
2023-04-04T05:56:49.231Z,6.17
2023-04-04T05:59:15.986Z,5.73
2023-04-04T06:01:43.213Z,5.77
2023-04-04T06:04:09.827Z,5.27
2023-04-04T06:06:36.323Z,6.50
2023-04-04T06:09:03.023Z,5.57
2023-04-04T06:11:29.806Z,4.97
2023-04-04T06:13:56.478Z,4.93
2023-04-04T06:16:23.465Z,4.60
2023-04-04T06:18:50.047Z,4.57
2023-04-04T06:21:16.636Z,4.50
2023-04-04T06:23:43.133Z,4.43
2023-04-04T06:26:13.000Z,4.53
2023-04-04T06:28:47.261Z,4.77
2023-04-04T06:31:13.831Z,6.00
2023-04-04T06:33:40.625Z,4.93
2023-04-04T06:36:07.250Z,6.80
2023-04-04T06:38:33.708Z,5.57
2023-04-04T06:41:00.145Z,5.70
2023-04-04T06:43:27.634Z,3.80
2023-04-04T06:45:55.261Z,3.60
2023-04-04T06:48:21.967Z,32.97
2023-04-04T06:50:48.519Z,32.30
2023-04-04T06:53:15.226Z,12.33
2023-04-04T06:55:41.707Z,6.30
2023-04-04T06:58:08.122Z,3.43
2023-04-04T07:00:34.621Z,3.03
2023-04-04T07:03:01.210Z,3.03
2023-04-04T07:05:28.006Z,2.80
2023-04-04T07:07:55.531Z,3.47
2023-04-04T07:10:23.659Z,2.90
2023-04-04T07:12:51.096Z,3.07
2023-04-04T07:15:17.576Z,3.17
2023-04-04T07:17:44.217Z,3.53
2023-04-04T07:20:11.494Z,2.80
2023-04-04T07:22:41.726Z,3.00
2023-04-04T07:25:11.026Z,3.00
2023-04-04T07:27:38.605Z,2.60
2023-04-04T07:30:05.740Z,3.30
2023-04-04T07:32:33.111Z,3.03
2023-04-04T07:34:59.462Z,2.50
2023-04-04T07:37:26.273Z,2.60
2023-04-04T07:39:53.055Z,2.93
2023-04-04T07:42:19.465Z,2.60
2023-04-04T07:44:46.100Z,3.00
2023-04-04T07:47:12.480Z,2.40
2023-04-04T07:49:38.932Z,2.87
2023-04-04T07:52:06.235Z,2.63
2023-04-04T07:54:32.752Z,2.77
2023-04-04T07:56:59.282Z,2.67
2023-04-04T07:59:25.924Z,2.35
2023-04-04T08:01:52.551Z,3.03
2023-04-04T08:04:19.005Z,2.60
2023-04-04T08:06:45.578Z,2.92
2023-04-04T08:09:15.312Z,3.33
2023-04-04T08:11:42.054Z,3.20
2023-04-04T08:14:08.594Z,2.95
2023-04-04T08:16:35.116Z,2.95
2023-04-04T08:19:02.737Z,2.80
2023-04-04T08:21:29.495Z,4.13
2023-04-04T08:23:56.057Z,3.50
2023-04-04T08:26:24.042Z,2.33
2023-04-04T08:28:51.492Z,3.45
2023-04-04T08:31:18.001Z,2.85
2023-04-04T08:33:47.578Z,2.92
2023-04-04T08:36:14.429Z,2.45
2023-04-04T08:38:40.777Z,2.80
2023-04-04T08:41:07.757Z,2.55
2023-04-04T08:43:35.158Z,2.70
2023-04-04T08:46:05.678Z,2.30
2023-04-04T08:48:33.510Z,2.70
2023-04-04T08:51:00.613Z,2.42
2023-04-04T08:53:29.399Z,3.05
2023-04-04T08:55:59.634Z,2.90
2023-04-04T08:58:26.424Z,2.80
2023-04-04T09:00:54.752Z,2.88
2023-04-04T09:03:26.320Z,2.65
2023-04-04T09:05:56.278Z,2.58
2023-04-04T09:08:23.468Z,3.10
2023-04-04T09:10:50.733Z,2.58
2023-04-04T09:13:17.590Z,2.80
2023-04-04T09:15:55.381Z,2.67
2023-04-04T09:18:24.281Z,2.38
2023-04-04T09:20:51.027Z,3.00
2023-04-04T09:23:19.125Z,2.80
2023-04-04T09:28:23.052Z,3.22
2023-04-04T09:30:50.400Z,3.03
2023-04-04T09:33:18.664Z,3.10
2023-04-04T09:36:06.984Z,2.60
2023-04-04T09:38:36.983Z,3.28
2023-04-04T09:41:07.122Z,2.70
2023-04-04T09:43:35.467Z,2.70
2023-04-04T09:46:03.782Z,2.75
2023-04-04T09:48:31.747Z,2.53
2023-04-04T09:50:59.156Z,2.63
2023-04-04T09:53:25.648Z,3.28
2023-04-04T09:55:54.998Z,2.65
2023-04-04T09:58:29.195Z,2.55
2023-04-04T10:01:00.596Z,3.00
2023-04-04T10:03:28.338Z,3.45
2023-04-04T10:06:07.390Z,3.35
2023-04-04T10:08:39.519Z,2.83
2023-04-04T10:11:12.029Z,2.90
2023-04-04T10:13:40.338Z,2.83
2023-04-04T10:16:07.660Z,2.70
2023-04-04T10:18:35.422Z,2.97
2023-04-04T10:23:36.880Z,2.65
2023-04-04T10:26:03.425Z,2.92
2023-04-04T10:28:29.801Z,3.15
2023-04-04T10:31:17.912Z,3.00
2023-04-04T10:34:07.398Z,3.28
2023-04-04T10:36:44.746Z,3.60
2023-04-04T10:39:15.102Z,2.92
2023-04-04T10:41:42.292Z,3.42
2023-04-04T10:44:29.592Z,2.53
2023-04-04T10:46:59.958Z,3.03
2023-04-04T10:49:27.886Z,2.33
2023-04-04T10:51:57.519Z,3.05
2023-04-04T10:54:26.626Z,2.85
2023-04-04T10:56:54.847Z,2.90
2023-04-04T10:59:21.470Z,2.70
2023-04-04T11:01:56.253Z,3.00
2023-04-04T11:04:31.363Z,2.70
2023-04-04T11:07:06.668Z,2.47
2023-04-04T11:10:12.832Z,2.78
2023-04-04T11:12:45.658Z,3.22
2023-04-04T11:15:14.463Z,2.65
2023-04-04T11:17:51.701Z,2.42
2023-04-04T11:20:21.851Z,2.85
2023-04-04T11:23:05.670Z,2.47
2023-04-04T11:25:35.102Z,2.67
2023-04-04T11:28:24.847Z,3.25
2023-04-04T11:31:14.014Z,2.75
2023-04-04T11:34:11.351Z,3.03
2023-04-04T11:36:37.856Z,2.95
2023-04-04T11:39:09.524Z,3.20
2023-04-04T11:41:51.768Z,2.70
2023-04-04T11:44:20.233Z,2.53
2023-04-04T11:46:49.223Z,2.97
2023-04-04T11:49:18.041Z,6.00
2023-04-04T11:51:45.894Z,3.10
2023-04-04T11:54:17.342Z,2.95
2023-04-04T11:56:45.526Z,2.83
2023-04-04T12:01:40.606Z,2.92
2023-04-04T12:04:07.169Z,3.20
2023-04-04T12:06:34.642Z,2.78
2023-04-04T12:09:06.388Z,3.20
2023-04-04T12:11:37.674Z,2.88
2023-04-04T12:14:04.246Z,3.30
2023-04-04T12:16:30.682Z,3.63
2023-04-04T12:19:01.992Z,2.85
2023-04-04T12:21:31.649Z,2.90
2023-04-04T12:23:58.360Z,3.63
2023-04-04T12:26:25.812Z,2.60
2023-04-04T12:28:52.384Z,2.92
2023-04-04T12:31:21.819Z,2.53
2023-04-04T12:33:48.584Z,2.60
2023-04-04T12:36:15.149Z,2.63
2023-04-04T12:39:10.559Z,3.17
2023-04-04T12:41:47.930Z,3.05
2023-04-04T12:44:32.174Z,2.90
2023-04-04T12:47:00.699Z,2.50
2023-04-04T12:49:32.412Z,2.78
2023-04-04T12:51:59.304Z,2.80
2023-04-04T12:54:27.899Z,2.88
2023-04-04T12:56:58.225Z,3.10
2023-04-04T12:59:29.445Z,2.92
2023-04-04T13:01:56.755Z,2.50
2023-04-04T13:04:24.740Z,2.50
2023-04-04T13:06:51.597Z,2.63
2023-04-04T13:09:26.844Z,2.50
2023-04-04T13:12:00.692Z,2.70
2023-04-04T13:14:48.208Z,2.90
2023-04-04T13:17:14.965Z,2.45
2023-04-04T13:19:41.603Z,2.40
2023-04-04T13:22:09.323Z,2.25
2023-04-04T13:24:35.962Z,2.92
2023-04-04T13:27:02.383Z,2.55
2023-04-04T13:29:28.847Z,2.42
2023-04-04T13:31:55.373Z,2.70
2023-04-04T13:34:23.002Z,2.30
2023-04-04T13:36:49.638Z,3.17
2023-04-04T13:39:16.021Z,2.58
2023-04-04T13:41:42.891Z,2.42
2023-04-04T13:44:10.014Z,2.42
2023-04-04T13:46:36.847Z,2.58
2023-04-04T13:49:03.854Z,2.70
2023-04-04T13:51:30.649Z,2.80
2023-04-04T13:53:57.182Z,2.53
2023-04-04T13:56:23.814Z,2.42
2023-04-04T13:58:50.417Z,2.47
2023-04-04T14:01:17.123Z,2.53
2023-04-04T14:03:43.665Z,2.40
2023-04-04T14:06:11.219Z,2.42
2023-04-04T14:08:38.446Z,2.60
2023-04-04T14:11:05.570Z,2.20
2023-04-04T14:13:32.080Z,2.28
2023-04-04T14:15:58.817Z,2.58
2023-04-04T14:18:26.653Z,2.80
2023-04-04T14:20:54.225Z,2.92
2023-04-04T14:23:20.591Z,2.55
2023-04-04T14:25:47.059Z,2.58
2023-04-04T14:28:13.860Z,2.67
2023-04-04T14:30:40.651Z,2.92
2023-04-04T14:33:07.095Z,2.92
2023-04-04T14:35:35.354Z,2.63
2023-04-04T14:38:04.672Z,2.60
2023-04-04T14:40:31.315Z,3.80
2023-04-04T14:42:57.988Z,2.25
2023-04-04T14:45:24.784Z,2.30
2023-04-04T14:47:51.300Z,2.70
2023-04-04T14:50:17.734Z,2.50
2023-04-04T14:52:45.911Z,2.72
2023-04-04T14:55:13.854Z,2.42
2023-04-04T14:57:56.909Z,2.60
2023-04-04T15:00:27.230Z,2.22
2023-04-04T15:02:53.672Z,2.42
2023-04-04T15:05:20.153Z,2.70
2023-04-04T15:07:47.111Z,2.55
2023-04-04T15:10:13.797Z,2.33
2023-04-04T15:12:40.509Z,2.97
2023-04-04T15:15:08.042Z,2.33
2023-04-04T15:17:34.411Z,2.47
2023-04-04T15:20:00.941Z,2.55
2023-04-04T15:22:27.729Z,2.60
2023-04-04T15:24:57.525Z,2.72
2023-04-04T15:27:24.348Z,3.00
2023-04-04T15:29:50.958Z,2.75
2023-04-04T15:32:17.394Z,3.03
2023-04-04T15:34:43.929Z,2.70
2023-04-04T15:37:10.498Z,2.60
2023-04-04T15:39:49.682Z,2.70
2023-04-04T15:42:19.122Z,2.90
2023-04-04T15:44:45.762Z,2.60
2023-04-04T15:47:12.541Z,2.70
2023-04-04T15:49:39.446Z,2.42
2023-04-04T15:52:06.344Z,2.22
2023-04-04T15:54:34.323Z,2.55
2023-04-04T15:57:02.339Z,2.97
2023-04-04T15:59:29.727Z,2.47
2023-04-04T16:01:56.426Z,2.65
2023-04-04T16:04:25.841Z,2.53
2023-04-04T16:06:53.063Z,2.90
2023-04-04T16:09:22.884Z,3.22
2023-04-04T16:11:52.684Z,3.17
2023-04-04T16:14:21.383Z,2.83
2023-04-04T16:16:48.863Z,2.60
2023-04-04T16:19:15.528Z,2.78
2023-04-04T16:21:43.834Z,3.05
2023-04-04T16:24:17.911Z,2.53
2023-04-04T16:26:44.362Z,2.42
2023-04-04T16:29:10.816Z,2.72
2023-04-04T16:31:37.297Z,2.40
2023-04-04T16:34:03.890Z,2.78
2023-04-04T16:36:31.037Z,2.85
2023-04-04T16:38:57.799Z,2.40
2023-04-04T16:41:24.221Z,2.90
2023-04-04T16:43:50.764Z,3.13
2023-04-04T16:46:17.500Z,2.78
2023-04-04T16:48:44.330Z,2.72
2023-04-04T16:51:11.434Z,2.80
2023-04-04T16:53:38.979Z,3.53
2023-04-04T16:56:05.766Z,2.63
2023-04-04T16:58:32.297Z,2.70
2023-04-04T17:00:59.076Z,2.90
2023-04-04T17:03:25.576Z,2.90
2023-04-04T17:05:52.977Z,2.45
2023-04-04T17:08:19.424Z,2.70
2023-04-04T17:10:45.847Z,2.60
2023-04-04T17:13:12.337Z,2.40
2023-04-04T17:15:39.101Z,2.45
2023-04-04T17:18:05.819Z,2.47
2023-04-04T17:20:34.696Z,2.90
2023-04-04T17:23:01.282Z,2.88
2023-04-04T17:25:27.962Z,3.17
2023-04-04T17:27:55.402Z,2.72
2023-04-04T17:30:22.032Z,3.35
2023-04-04T17:32:48.749Z,3.88
2023-04-04T17:35:15.725Z,3.00
2023-04-04T17:37:42.144Z,3.15
2023-04-04T17:40:08.846Z,3.53
2023-04-04T17:42:35.367Z,3.10
2023-04-04T17:45:02.051Z,2.95
2023-04-04T17:47:29.194Z,2.50
2023-04-04T17:49:56.635Z,2.97
2023-04-04T17:52:23.072Z,2.70
2023-04-04T17:54:49.631Z,3.40
2023-04-04T17:57:16.261Z,2.78
2023-04-04T17:59:42.768Z,3.63
2023-04-04T18:02:09.188Z,3.13
2023-04-04T18:04:36.786Z,2.58
2023-04-04T18:07:03.575Z,3.20
2023-04-04T18:09:30.155Z,4.20
2023-04-04T18:11:56.815Z,3.30
2023-04-04T18:14:23.369Z,3.30
2023-04-04T18:16:49.919Z,3.50
2023-04-04T18:19:16.415Z,3.00
2023-04-04T18:21:43.010Z,4.20
2023-04-04T18:24:09.737Z,6.00
2023-04-04T18:26:36.211Z,5.13
2023-04-04T18:29:03.302Z,3.33
2023-04-04T18:31:30.758Z,3.30
2023-04-04T18:33:57.183Z,3.35
2023-04-04T18:36:24.458Z,5.45
2023-04-04T18:38:51.017Z,3.47
2023-04-04T18:41:18.475Z,4.10
2023-04-04T18:43:46.721Z,3.83
2023-04-04T18:46:16.661Z,3.28
2023-04-04T18:48:43.400Z,3.90
2023-04-04T18:51:12.287Z,3.50
2023-04-04T18:53:39.164Z,3.60
2023-04-04T18:56:25.105Z,3.90
2023-04-04T18:58:56.735Z,3.83
2023-04-04T19:01:27.583Z,3.80
2023-04-04T19:06:39.640Z,3.38
2023-04-04T19:09:29.222Z,3.75
2023-04-04T19:11:56.036Z,3.55
2023-04-04T19:14:22.843Z,3.40
2023-04-04T19:16:49.529Z,3.88
2023-04-04T19:19:15.902Z,3.60
2023-04-04T19:21:42.596Z,3.58
2023-04-04T19:24:09.044Z,3.25
2023-04-04T19:26:37.502Z,3.55
2023-04-04T19:29:04.901Z,4.50
2023-04-04T19:31:32.858Z,4.38
2023-04-04T19:34:00.020Z,3.60
2023-04-04T19:36:26.508Z,4.93
2023-04-04T19:38:54.713Z,4.10
2023-04-04T19:41:41.031Z,4.95
2023-04-04T19:44:18.876Z,4.50
2023-04-04T19:46:45.611Z,4.20
2023-04-04T19:49:12.562Z,3.75
2023-04-04T19:51:53.905Z,3.63
2023-04-04T19:54:25.025Z,3.90
2023-04-04T19:56:56.562Z,3.65
2023-04-04T19:59:47.885Z,3.65
2023-04-04T20:02:51.401Z,4.07
2023-04-04T20:05:48.697Z,4.65
2023-04-04T20:08:16.069Z,14.07
2023-04-04T20:10:42.712Z,13.57
2023-04-04T20:13:09.739Z,9.43
2023-04-04T20:15:45.231Z,5.60
2023-04-04T20:18:20.610Z,3.97
2023-04-04T20:21:07.935Z,3.65
2023-04-04T20:23:41.810Z,3.55
2023-04-04T20:26:09.398Z,4.33
2023-04-04T20:28:36.824Z,3.47
2023-04-04T20:31:12.269Z,4.03
2023-04-04T20:33:40.170Z,3.83
2023-04-04T20:36:22.622Z,6.50
2023-04-04T20:38:49.229Z,7.93
2023-04-04T20:41:18.417Z,6.27
2023-04-04T20:43:54.573Z,7.07
2023-04-04T20:46:23.310Z,5.30
2023-04-04T20:48:51.110Z,4.13
2023-04-04T20:51:23.848Z,4.30
2023-04-04T20:53:52.782Z,4.47
2023-04-04T20:56:41.871Z,4.03
2023-04-04T20:59:32.335Z,5.20
2023-04-04T21:02:17.806Z,5.18
2023-04-04T21:04:45.422Z,4.47
2023-04-04T21:07:34.682Z,5.70
2023-04-04T21:10:01.366Z,5.80
2023-04-04T21:12:27.954Z,5.27
2023-04-04T21:14:54.504Z,5.43
2023-04-04T21:17:21.226Z,5.87
2023-04-04T21:19:47.554Z,5.50
2023-04-04T21:22:13.936Z,6.73
2023-04-04T21:24:40.458Z,6.33
2023-04-04T21:27:07.217Z,6.63
2023-04-04T21:29:33.613Z,6.80
2023-04-04T21:32:00.133Z,6.50
2023-04-04T21:34:27.437Z,7.37
2023-04-04T21:37:01.013Z,7.23
2023-04-04T21:39:29.634Z,6.30
2023-04-04T21:41:59.995Z,6.20
2023-04-04T21:44:26.678Z,6.57
2023-04-04T21:46:53.234Z,7.27
2023-04-04T21:49:19.860Z,6.23
2023-04-04T21:51:46.357Z,6.90
2023-04-04T21:54:13.027Z,6.07
2023-04-04T21:56:39.984Z,5.93
2023-04-04T21:59:08.169Z,6.60
2023-04-04T22:01:36.859Z,6.27
2023-04-04T22:04:03.541Z,7.20
2023-04-04T22:06:30.605Z,6.87
2023-04-04T22:08:59.662Z,6.10
2023-04-04T22:11:27.631Z,6.50
2023-04-04T22:13:55.045Z,6.03
2023-04-04T22:16:21.575Z,6.50
2023-04-04T22:18:49.266Z,7.37
2023-04-04T22:21:15.923Z,6.07
2023-04-04T22:23:43.024Z,6.30
2023-04-04T22:26:12.691Z,6.57
2023-04-04T22:28:40.129Z,6.30
2023-04-04T22:31:06.498Z,6.33
2023-04-04T22:33:32.947Z,6.20
2023-04-04T22:36:01.097Z,6.15
2023-04-04T22:38:29.703Z,5.70
2023-04-04T22:40:57.773Z,6.10
2023-04-04T22:43:25.752Z,6.67
2023-04-04T22:45:53.021Z,6.40
2023-04-04T22:48:21.374Z,6.27
2023-04-04T22:50:48.120Z,6.13
2023-04-04T22:53:14.454Z,5.97
2023-04-04T22:55:41.212Z,6.93
2023-04-04T22:58:08.382Z,6.37
2023-04-04T23:00:35.301Z,5.83
2023-04-04T23:03:01.809Z,6.00
2023-04-04T23:05:29.537Z,6.07
2023-04-04T23:08:01.169Z,6.40
2023-04-04T23:10:27.546Z,6.73
2023-04-04T23:12:55.423Z,5.90
2023-04-04T23:15:22.311Z,6.00
2023-04-04T23:17:48.761Z,5.80
2023-04-04T23:20:15.263Z,5.83
2023-04-04T23:22:41.887Z,6.57
2023-04-04T23:25:08.526Z,6.30
2023-04-04T23:27:35.322Z,6.57
2023-04-04T23:30:02.356Z,6.50
2023-04-04T23:32:29.037Z,6.70
2023-04-04T23:34:55.796Z,7.23
2023-04-04T23:37:22.170Z,7.00
2023-04-04T23:39:48.517Z,7.17
2023-04-04T23:42:15.104Z,6.77
2023-04-04T23:44:41.489Z,7.40
2023-04-04T23:47:08.326Z,7.57
2023-04-04T23:49:34.919Z,6.87
2023-04-04T23:52:01.423Z,6.80
2023-04-04T23:54:27.864Z,7.57
2023-04-04T23:56:54.475Z,7.13
2023-04-04T23:59:20.998Z,6.60
